Eko 4 — SVAR8 — position and weather

sailwx.info

Track history (hours):
 
Tides and Currents Weather Stations Pressure Air Temp Water Temp Dewpoint Dewpoint Depression Visibility Wind Speed Wind Dir Waves Ship Positions

Eko 4

Last reported at 2015-Apr-16 01:31 UTC. Time now 2015-Apr-18 16:47 UTC.
Position N 36°58' E 026°11'.

Length 88 m; draft 5.5 m.

Type: Ship (hazmat cat A). MMSI: 240912000.

Date/timePositionNaut miles runAvg speedWind from/ knotsBaromVisibWave heightAir tempDewpointWater temp
2015-Apr-16 01:31N 36°58' E 026°11'9 9.6
2015-Apr-16 00:32N 37°04' E 026°02'9 9.5
2015-Apr-15 23:33N 37°10' E 025°52'9 9.3
2015-Apr-15 22:33N 37°13' E 025°41'10 9.4
2015-Apr-15 21:31N 37°15' E 025°29'9 9.3
2015-Apr-15 20:33N 37°16' E 025°18'9 9.2
2015-Apr-15 19:32N 37°18' E 025°07'10 9.4
2015-Apr-15 18:32N 37°20' E 024°55'60 8.6
2015-Apr-15 11:33N 37°39' E 023°44'9 9.4
2015-Apr-15 10:33N 37°47' E 023°38'26 0.7
2015-Apr-13 23:31N 37°55' E 023°06'0 0.0
2015-Apr-13 20:10N 37°55' E 023°06'0 0.1
2015-Apr-13 19:19N 37°55' E 023°06'1 0.1
2015-Apr-13 13:12N 37°54' E 023°06'6 8.6
2015-Apr-13 12:33N 37°53' E 023°13'9 9.4
2015-Apr-13 11:33N 37°52' E 023°25'8 7.6
2015-Apr-13 10:33N 37°55' E 023°34'0 0.0
2015-Apr-13 09:33N 37°55' E 023°34'0 0.0
2015-Apr-13 08:33N 37°55' E 023°34'0 0.0
2015-Apr-13 07:33N 37°55' E 023°34'0 0.1
2015-Apr-13 06:32N 37°55' E 023°34'0 0.0
2015-Apr-13 05:29N 37°55' E 023°34'3 3.2
2015-Apr-13 04:33N 37°53' E 023°37'9 9.1
2015-Apr-13 03:33N 37°45' E 023°43'37 9.3
2015-Apr-12 23:33N 37°10' E 023°59'62 9.8
2015-Apr-12 17:12N 36°14' E 024°32'24 8.9
2015-Apr-12 14:33N 35°53' E 024°45'  
2015-Apr-07 06:28N 36°01' E 024°55'112 8.4
2015-Apr-06 17:05N 37°38' E 023°45'5 8.8
2015-Apr-06 16:33N 37°42' E 023°41'9 8.9
2015-Apr-06 15:33N 37°50' E 023°36'8 7.7
2015-Apr-06 14:33N 37°57' E 023°33'4 0.6
2015-Apr-06 07:13N 38°01' E 023°32'2 2.3
2015-Apr-06 06:32N 38°01' E 023°34'1 1.4
2015-Apr-06 05:31N 38°02' E 023°36'0 0.0
2015-Apr-06 04:31N 38°02' E 023°36'0 0.0
2015-Apr-06 03:28N 38°02' E 023°36'0 0.0
2015-Apr-06 02:22N 38°02' E 023°36'  
Track history (hours):
 
Tides and Currents Weather Stations Pressure Air Temp Water Temp Dewpoint Dewpoint Depression Visibility Wind Speed Wind Dir Waves Ship Positions

Eko 4

Last reported at 2015-Apr-16 01:31 UTC. Time now 2015-Apr-18 16:47 UTC.
Position N 36°58' E 026°11'.

Length 88 m; draft 5.5 m.

Type: Ship (hazmat cat A). MMSI: 240912000.

Date/timePositionNaut miles runAvg speedWind from/ knotsBaromVisibWave heightAir tempDewpointWater temp
2015-Apr-16 01:31N 36°58' E 026°11'9 9.6
2015-Apr-16 00:32N 37°04' E 026°02'9 9.5
2015-Apr-15 23:33N 37°10' E 025°52'9 9.3
2015-Apr-15 22:33N 37°13' E 025°41'10 9.4
2015-Apr-15 21:31N 37°15' E 025°29'9 9.3
2015-Apr-15 20:33N 37°16' E 025°18'9 9.2
2015-Apr-15 19:32N 37°18' E 025°07'10 9.4
2015-Apr-15 18:32N 37°20' E 024°55'60 8.6
2015-Apr-15 11:33N 37°39' E 023°44'9 9.4
2015-Apr-15 10:33N 37°47' E 023°38'26 0.7
2015-Apr-13 23:31N 37°55' E 023°06'0 0.0
2015-Apr-13 20:10N 37°55' E 023°06'0 0.1
2015-Apr-13 19:19N 37°55' E 023°06'1 0.1
2015-Apr-13 13:12N 37°54' E 023°06'6 8.6
2015-Apr-13 12:33N 37°53' E 023°13'9 9.4
2015-Apr-13 11:33N 37°52' E 023°25'8 7.6
2015-Apr-13 10:33N 37°55' E 023°34'0 0.0
2015-Apr-13 09:33N 37°55' E 023°34'0 0.0
2015-Apr-13 08:33N 37°55' E 023°34'0 0.0
2015-Apr-13 07:33N 37°55' E 023°34'0 0.1
2015-Apr-13 06:32N 37°55' E 023°34'0 0.0
2015-Apr-13 05:29N 37°55' E 023°34'3 3.2
2015-Apr-13 04:33N 37°53' E 023°37'9 9.1
2015-Apr-13 03:33N 37°45' E 023°43'37 9.3
2015-Apr-12 23:33N 37°10' E 023°59'62 9.8
2015-Apr-12 17:12N 36°14' E 024°32'24 8.9
2015-Apr-12 14:33N 35°53' E 024°45'  
2015-Apr-07 06:28N 36°01' E 024°55'112 8.4
2015-Apr-06 17:05N 37°38' E 023°45'5 8.8
2015-Apr-06 16:33N 37°42' E 023°41'9 8.9
2015-Apr-06 15:33N 37°50' E 023°36'8 7.7
2015-Apr-06 14:33N 37°57' E 023°33'4 0.6
2015-Apr-06 07:13N 38°01' E 023°32'2 2.3
2015-Apr-06 06:32N 38°01' E 023°34'1 1.4
2015-Apr-06 05:31N 38°02' E 023°36'0 0.0
2015-Apr-06 04:31N 38°02' E 023°36'0 0.0
2015-Apr-06 03:28N 38°02' E 023°36'0 0.0
2015-Apr-06 02:22N 38°02' E 023°36'  

Dump ship's entire track history